Time;durP1;ratioP1;P1;durP2;ratioP2;P2;SDS_P1;SDS_P2;PMS_P1;PMS_P2;Temp;Humidity;BMP_temperature;BMP_pressure;BME280_temperature;BME280_humidity;BME280_pressure;Samples;Min_cycle;Max_cycle;Signal;HPM_P1;HPM_P2
2022/04/24 00:00:33;;;;;;;9.18;5.60;;;7.20;99.90;;;7.70;100.00;97980.22;4980566;28;128236;-68
2022/04/24 00:03:02;;;;;;;7.00;4.90;;;7.10;99.90;;;7.65;100.00;97975.00;4980473;28;129260;-68
2022/04/24 00:05:30;;;;;;;6.80;5.10;;;7.10;99.90;;;7.63;100.00;97975.34;4978994;28;119762;-67
2022/04/24 00:07:59;;;;;;;9.93;5.85;;;7.00;99.90;;;7.59;100.00;97962.81;4981560;28;118608;-68
2022/04/24 00:10:27;;;;;;;7.82;5.20;;;7.00;99.90;;;7.55;100.00;97968.88;4977195;28;130469;-68
2022/04/24 00:12:56;;;;;;;8.25;5.32;;;6.90;99.90;;;7.53;100.00;97971.13;4980465;28;128917;-69
2022/04/24 00:15:27;;;;;;;8.05;5.20;;;6.90;99.90;;;7.49;100.00;97969.41;4976844;28;122149;-69
2022/04/24 00:17:55;;;;;;;9.13;5.88;;;6.80;99.90;;;7.46;100.00;97964.66;4978767;28;121672;-68
2022/04/24 00:20:24;;;;;;;10.40;6.22;;;6.80;99.90;;;7.45;100.00;97966.59;4978438;28;130613;-68
2022/04/24 00:22:52;;;;;;;8.45;6.07;;;6.90;99.90;;;7.45;100.00;97963.88;4978426;28;129886;-69
2022/04/24 00:25:20;;;;;;;8.55;5.72;;;6.80;99.90;;;7.48;100.00;97968.63;4978834;28;119782;-68
2022/04/24 00:27:49;;;;;;;8.65;5.85;;;6.80;99.90;;;7.49;100.00;97964.78;4980490;28;118011;-70
2022/04/24 00:30:17;;;;;;;8.80;6.13;;;6.80;99.90;;;7.49;100.00;97961.31;4978378;28;130236;-68
2022/04/24 00:32:47;;;;;;;7.80;5.43;;;6.90;99.90;;;7.50;100.00;97961.00;4978631;28;129972;-68
2022/04/24 00:35:16;;;;;;;9.30;5.35;;;6.90;99.90;;;7.54;100.00;97967.31;4997028;28;119294;-68
2022/04/24 00:37:44;;;;;;;8.65;5.63;;;6.90;99.90;;;7.59;100.00;97957.44;4978311;28;119280;-67
2022/04/24 00:40:13;;;;;;;7.63;5.32;;;7.00;99.90;;;7.61;100.00;97955.22;4976985;28;130684;-67
2022/04/24 00:42:41;;;;;;;9.25;5.80;;;7.00;99.90;;;7.65;100.00;97959.63;4978405;28;130116;-66
2022/04/24 00:45:11;;;;;;;8.02;5.65;;;7.00;99.90;;;7.72;100.00;97957.16;4980090;28;119766;-68
2022/04/24 00:47:47;;;;;;;8.60;5.90;;;7.10;99.90;;;7.80;100.00;97955.50;4997104;28;119196;-68
2022/04/24 00:50:17;;;;;;;9.50;6.60;;;7.10;99.90;;;7.74;100.00;97951.44;4978188;28;130950;-68
2022/04/24 00:52:47;;;;;;;9.25;6.72;;;7.20;99.90;;;7.77;100.00;97952.69;4978052;28;130322;-68
2022/04/24 00:55:16;;;;;;;8.77;6.22;;;7.20;99.90;;;7.79;100.00;97943.16;4978510;28;119911;-69
2022/04/24 00:57:46;;;;;;;10.35;7.07;;;7.20;99.90;;;7.78;100.00;97948.88;4978332;28;119388;-70
2022/04/24 01:00:16;;;;;;;9.65;6.78;;;7.20;99.90;;;7.74;100.00;97954.13;4977870;28;129459;-68
2022/04/24 01:02:46;;;;;;;8.52;5.75;;;7.10;99.90;;;7.55;100.00;97949.19;4977987;28;129583;-65
2022/04/24 01:05:17;;;;;;;8.80;6.00;;;7.00;99.90;;;7.35;100.00;97950.78;4977009;28;121747;-67
2022/04/24 01:07:46;;;;;;;10.57;6.47;;;7.00;99.90;;;7.28;100.00;97964.00;4978064;28;122285;-68
2022/04/24 01:10:14;;;;;;;9.38;6.07;;;6.90;99.90;;;7.20;100.00;97960.25;4977745;28;130282;-68
2022/04/24 01:12:43;;;;;;;10.27;6.38;;;6.90;99.90;;;7.11;100.00;97973.78;4977705;28;130013;-67
2022/04/24 01:15:11;;;;;;;10.82;6.57;;;6.80;99.90;;;7.00;100.00;97970.66;4980103;28;118867;-67
2022/04/24 01:17:40;;;;;;;9.38;6.13;;;6.80;99.90;;;7.06;100.00;97962.38;4979945;28;119026;-68
2022/04/24 01:20:13;;;;;;;9.02;6.28;;;6.80;99.90;;;7.15;100.00;97965.81;4996184;28;129840;-70
2022/04/24 01:22:43;;;;;;;9.32;5.85;;;6.80;99.90;;;7.22;100.00;97970.72;4996916;28;129571;-68
2022/04/24 01:25:15;;;;;;;9.35;6.28;;;6.90;99.90;;;7.23;100.00;97956.09;4978148;28;120289;-68
2022/04/24 01:27:44;;;;;;;8.65;5.85;;;6.90;99.90;;;7.20;100.00;97958.31;4977556;28;119860;-69
2022/04/24 01:30:12;;;;;;;9.30;5.50;;;6.70;99.90;;;7.09;100.00;97956.31;4976095;28;130231;-68
2022/04/24 01:32:41;;;;;;;8.48;5.40;;;6.60;99.90;;;7.07;100.00;97951.25;4977310;28;130796;-68
2022/04/24 01:35:11;;;;;;;8.80;5.70;;;6.50;99.90;;;7.02;100.00;97951.44;4977778;28;119872;-69
2022/04/24 01:37:45;;;;;;;8.25;5.30;;;6.50;99.90;;;7.02;100.00;97959.53;4980583;28;119530;-70
2022/04/24 01:40:13;;;;;;;9.02;5.85;;;6.40;99.90;;;7.00;100.00;97957.16;4977160;28;131462;-67
2022/04/24 01:42:41;;;;;;;10.45;6.32;;;6.30;99.90;;;7.01;100.00;97955.25;4979522;28;128417;-69
2022/04/24 01:45:10;;;;;;;9.10;5.97;;;6.30;99.90;;;6.98;100.00;97953.19;4979126;28;118591;-70
2022/04/24 01:47:38;;;;;;;8.20;5.45;;;6.30;99.90;;;6.99;100.00;97952.09;4977900;28;119843;-69
2022/04/24 01:50:07;;;;;;;9.00;5.72;;;6.30;99.90;;;7.00;100.00;97954.47;4980634;28;130064;-71
2022/04/24 01:52:36;;;;;;;9.10;6.10;;;6.30;99.90;;;6.98;100.00;97953.19;4980624;28;129587;-67
2022/04/24 01:55:07;;;;;;;8.35;5.80;;;6.30;99.90;;;7.00;100.00;97942.91;4979509;28;121784;-68
2022/04/24 01:57:35;;;;;;;9.20;6.15;;;6.30;99.90;;;7.03;100.00;97950.34;4982789;28;121411;-67
2022/04/24 02:00:05;;;;;;;8.93;5.97;;;6.40;99.90;;;7.07;100.00;97948.53;4980711;28;130904;-68
2022/04/24 02:02:41;;;;;;;8.35;5.63;;;6.40;99.90;;;7.08;100.00;97955.53;4980971;28;129822;-67
2022/04/24 02:05:09;;;;;;;8.82;6.00;;;6.40;99.90;;;7.13;100.00;97954.56;4996085;28;119633;-69
2022/04/24 02:07:38;;;;;;;8.85;5.85;;;6.40;99.90;;;7.16;100.00;97941.19;4979501;28;119419;-68
2022/04/24 02:10:09;;;;;;;9.13;6.35;;;6.40;99.90;;;7.19;100.00;97945.94;4982349;28;129487;-69
2022/04/24 02:12:40;;;;;;;11.65;6.80;;;6.40;99.90;;;7.23;100.00;97946.09;4982640;28;129469;-70
2022/04/24 02:15:09;;;;;;;9.98;6.88;;;6.40;99.90;;;7.19;100.00;97950.56;4980869;28;120560;-67
2022/04/24 02:17:37;;;;;;;12.40;7.50;;;6.50;99.90;;;7.19;100.00;97948.63;4980321;28;119481;-66
2022/04/24 02:20:07;;;;;;;9.63;6.63;;;6.50;99.90;;;7.18;100.00;97948.97;4979031;28;130495;-68
2022/04/24 02:22:36;;;;;;;9.70;6.78;;;6.50;99.90;;;7.22;100.00;97949.13;4980696;28;129449;-69
2022/04/24 02:25:05;;;;;;;10.05;7.13;;;6.50;99.90;;;7.19;100.00;97947.84;4980689;28;119524;-69
2022/04/24 02:27:35;;;;;;;10.45;7.07;;;6.50;99.90;;;7.17;100.00;97942.78;4982301;28;119258;-69
2022/04/24 02:30:04;;;;;;;10.35;7.70;;;6.50;99.90;;;7.12;100.00;97944.88;4980046;28;130179;-69
2022/04/24 02:32:33;;;;;;;10.57;7.55;;;6.50;99.90;;;7.15;100.00;97953.13;4978693;28;130433;-69
2022/04/24 02:35:02;;;;;;;11.07;8.30;;;6.50;99.90;;;7.12;100.00;97953.78;4980342;28;119624;-68
2022/04/24 02:37:32;;;;;;;9.85;7.43;;;6.50;99.90;;;7.02;100.00;97951.44;4980735;28;119318;-69
2022/04/24 02:40:00;;;;;;;11.00;7.95;;;6.50;99.90;;;7.07;100.00;97956.66;4979828;28;129890;-67
2022/04/24 02:42:29;;;;;;;10.55;7.97;;;6.50;99.90;;;7.13;100.00;97951.84;4980115;28;129911;-69
2022/04/24 02:44:58;;;;;;;11.63;7.82;;;6.50;99.90;;;7.18;100.00;97949.78;4979733;28;122084;-69
2022/04/24 02:47:27;;;;;;;11.25;7.10;;;6.50;99.90;;;7.22;100.00;97946.44;4979906;28;121727;-68
2022/04/24 02:49:55;;;;;;;9.07;7.07;;;6.50;99.90;;;7.26;100.00;97956.25;4981475;28;128627;-69
2022/04/24 02:52:23;;;;;;;11.88;7.97;;;6.50;99.90;;;7.27;100.00;97959.72;4979816;28;130152;-68
2022/04/24 02:54:51;;;;;;;10.48;7.22;;;6.50;99.90;;;7.23;100.00;97961.47;4998541;28;120013;-69
2022/04/24 02:57:21;;;;;;;9.70;6.78;;;6.50;99.90;;;7.23;100.00;97961.47;4980168;28;120550;-69
2022/04/24 02:59:49;;;;;;;10.95;7.80;;;6.50;99.90;;;7.14;100.00;97958.84;4978333;28;129684;-67
2022/04/24 03:02:19;;;;;;;11.35;8.45;;;6.50;99.90;;;7.18;100.00;97957.06;4980334;28;129760;-69
2022/04/24 03:04:47;;;;;;;11.07;8.02;;;6.60;99.90;;;7.26;100.00;97961.63;4998461;28;120134;-69
2022/04/24 03:07:16;;;;;;;11.10;7.40;;;6.60;99.90;;;7.23;100.00;97965.00;4995025;28;119866;-68
2022/04/24 03:09:44;;;;;;;11.63;7.55;;;6.60;99.90;;;7.26;100.00;97955.44;4978293;28;130508;-69
2022/04/24 03:12:13;;;;;;;12.82;8.35;;;6.60;99.90;;;7.31;100.00;97966.06;4979663;28;129550;-70
2022/04/24 03:14:41;;;;;;;11.13;7.78;;;6.60;99.90;;;7.39;100.00;97965.19;4979914;28;119879;-69
2022/04/24 03:17:10;;;;;;;12.73;8.82;;;6.60;99.90;;;7.43;100.00;97968.81;4998198;28;118928;-68
2022/04/24 03:19:40;;;;;;;14.30;9.55;;;6.70;99.90;;;7.45;100.00;97963.88;4979903;28;129892;-70
2022/04/24 03:22:08;;;;;;;14.13;10.45;;;6.70;99.90;;;7.42;100.00;97961.84;4979433;28;129600;-69
2022/04/24 03:24:37;;;;;;;14.57;10.20;;;6.70;99.90;;;7.48;100.00;97968.63;4981248;28;119973;-69
2022/04/24 03:27:06;;;;;;;18.98;10.68;;;6.70;99.90;;;7.46;100.00;97964.66;4979983;28;119985;-67
2022/04/24 03:29:35;;;;;;;17.42;11.50;;;6.70;99.90;;;7.47;100.00;97974.34;4979059;28;130756;-67
2022/04/24 03:32:05;;;;;;;17.05;12.68;;;6.70;99.90;;;7.46;100.00;97976.25;4979079;28;129396;-70
2022/04/24 03:34:33;;;;;;;16.52;12.20;;;6.70;99.90;;;7.48;100.00;97979.44;4977984;28;122572;-68
2022/04/24 03:37:03;;;;;;;19.23;12.68;;;6.70;99.90;;;7.50;100.00;97981.81;4981273;28;121604;-69
2022/04/24 03:39:32;;;;;;;20.23;13.52;;;6.70;99.90;;;7.55;100.00;97990.47;4979504;28;130147;-70
2022/04/24 03:42:00;;;;;;;18.20;12.93;;;6.80;99.90;;;7.49;100.00;97983.69;4979084;28;130264;-71
2022/04/24 03:44:28;;;;;;;19.88;13.88;;;6.80;99.90;;;7.44;100.00;97992.00;4979512;28;119868;-68
2022/04/24 03:46:57;;;;;;;23.27;14.38;;;6.80;99.90;;;7.44;100.00;97994.69;4979438;28;119487;-69
2022/04/24 03:49:25;;;;;;;25.25;14.45;;;6.80;99.90;;;7.50;100.00;97982.59;4980573;28;130026;-68
2022/04/24 03:51:54;;;;;;;25.02;15.60;;;6.80;99.90;;;7.59;100.00;97989.81;4980992;28;129682;-71
2022/04/24 03:54:24;;;;;;;24.70;15.85;;;6.80;99.90;;;7.67;100.00;97989.78;4979070;28;120145;-67
2022/04/24 03:56:52;;;;;;;29.58;17.25;;;6.90;99.90;;;7.86;100.00;97983.91;4980860;28;118937;-71
2022/04/24 03:59:21;;;;;;;28.70;16.65;;;7.00;99.90;;;7.99;100.00;97997.47;4978092;28;130892;-72
2022/04/24 04:01:49;;;;;;;25.83;15.18;;;7.10;99.90;;;8.00;100.00;97989.03;4979303;28;129870;-68
2022/04/24 04:04:18;;;;;;;20.52;13.52;;;7.10;99.90;;;7.96;100.00;97988.09;4995745;28;122535;-70
2022/04/24 04:06:47;;;;;;;21.20;14.25;;;7.10;99.90;;;7.97;100.00;97994.31;4998431;28;119410;-71
2022/04/24 04:09:16;;;;;;;19.10;12.65;;;7.10;99.90;;;7.99;100.00;97992.06;4999866;28;128610;-69
2022/04/24 04:11:45;;;;;;;18.95;12.73;;;7.10;99.90;;;8.05;100.00;97990.75;4997477;28;129822;-69
2022/04/24 04:14:14;;;;;;;20.63;13.45;;;7.10;99.90;;;8.12;100.00;97995.59;4998912;28;119175;-70
2022/04/24 04:16:43;;;;;;;19.90;11.88;;;7.20;99.90;;;8.13;100.00;97997.19;5000394;28;119106;-71
2022/04/24 04:19:11;;;;;;;19.20;11.93;;;7.20;99.90;;;8.35;100.00;97990.63;4998380;28;129732;-71
2022/04/24 04:21:40;;;;;;;17.33;11.60;;;7.30;99.90;;;8.36;99.90;97992.22;5000048;28;129806;-71
2022/04/24 04:24:09;;;;;;;15.95;10.32;;;7.30;99.90;;;8.44;99.28;97996.75;4995842;28;122279;-72
2022/04/24 04:26:37;;;;;;;16.50;11.10;;;7.40;99.90;;;8.55;98.38;97997.91;4997798;28;122191;-70
2022/04/24 04:29:08;;;;;;;13.20;9.32;;;7.40;99.90;;;8.52;98.06;98001.28;4999758;28;129580;-71
2022/04/24 04:31:37;;;;;;;16.08;9.80;;;7.40;99.90;;;8.59;97.85;98001.53;4997056;28;130056;-71
2022/04/24 04:34:05;;;;;;;14.18;9.75;;;7.50;99.90;;;8.50;98.11;98008.94;4998032;28;120828;-72
2022/04/24 04:36:33;;;;;;;14.40;10.02;;;7.40;99.90;;;8.57;98.11;97997.56;4995295;28;119782;-71
2022/04/24 04:39:02;;;;;;;13.63;10.35;;;7.40;99.90;;;8.79;96.59;97993.69;4997951;28;130008;-70
2022/04/24 04:41:31;;;;;;;14.98;10.30;;;7.60;99.90;;;8.80;96.60;97993.38;4998124;28;129675;-71
2022/04/24 04:44:00;;;;;;;14.38;9.65;;;7.70;99.90;;;8.82;95.48;98001.94;4998286;28;120725;-71
2022/04/24 04:46:29;;;;;;;12.77;9.02;;;7.70;99.90;;;9.03;94.82;98001.03;4997090;28;120467;-70
2022/04/24 04:48:59;;;;;;;11.85;8.85;;;7.80;99.90;;;9.38;93.81;98005.19;5014919;28;128503;-71
2022/04/24 04:51:27;;;;;;;12.27;9.05;;;7.90;99.90;;;9.68;92.34;98013.88;4997452;28;129430;-72
2022/04/24 04:53:56;;;;;;;11.65;8.88;;;8.20;90.20;;;9.75;91.20;98016.00;4999611;28;118988;-72
2022/04/24 04:56:24;;;;;;;11.65;8.73;;;8.30;4.10;;;9.84;89.94;98016.66;4997309;28;119915;-70
2022/04/24 04:58:53;;;;;;;12.77;9.18;;;8.40;1.00;;;9.69;89.54;98020.84;4996685;28;129730;-72
2022/04/24 05:01:21;;;;;;;13.50;8.80;;;8.30;1.00;;;9.63;89.40;98020.31;4999791;28;130403;-71
2022/04/24 05:03:51;;;;;;;11.82;8.05;;;8.20;1.00;;;9.61;88.62;98024.47;4997072;28;119895;-72
2022/04/24 05:06:21;;;;;;;11.38;8.27;;;8.20;1.00;;;9.34;89.46;98022.13;4988079;28;119309;-69
2022/04/24 05:08:50;;;;;;;13.18;10.00;;;8.00;1.00;;;9.55;88.67;98018.50;4983195;28;129797;-72
2022/04/24 05:11:18;;;;;;;10.73;9.10;;;8.10;1.00;;;9.96;87.82;98022.03;4997859;28;130084;-71
2022/04/24 05:13:47;;;;;;;10.55;8.68;;;8.30;1.00;;;10.37;86.25;98024.75;4996264;28;122397;-71
2022/04/24 05:16:16;;;;;;;10.57;7.80;;;8.60;1.00;;;10.23;85.03;98025.88;4984947;28;121451;-72
2022/04/24 05:18:44;;;;;;;10.48;8.68;;;8.60;1.00;;;10.54;84.52;98023.66;4977515;28;130003;-71
2022/04/24 05:21:14;;;;;;;10.50;7.82;;;8.70;1.00;;;10.69;83.59;98017.47;4985118;28;129438;-73
2022/04/24 05:23:45;;;;;;;9.80;7.47;;;8.80;1.00;;;10.68;83.48;98024.03;5002645;28;119500;-72
2022/04/24 05:26:14;;;;;;;10.80;8.27;;;8.80;1.00;;;11.02;81.92;98021.78;5001315;28;119301;-73
2022/04/24 05:28:42;;;;;;;12.35;9.65;;;9.00;1.00;;;11.00;81.19;98031.41;5001007;28;129977;-72
2022/04/24 05:31:11;;;;;;;9.13;7.32;;;9.10;1.00;;;11.38;79.02;98022.63;5001132;28;129476;-73
2022/04/24 05:33:39;;;;;;;10.55;7.63;;;9.20;1.00;;;11.91;78.23;98027.69;5001326;28;119799;-72
2022/04/24 05:36:08;;;;;;;9.40;7.20;;;9.60;1.00;;;12.18;76.78;98030.59;5000791;28;119570;-74
2022/04/24 05:38:39;;;;;;;8.20;6.40;;;9.80;1.00;;;12.28;75.55;98031.94;4999377;28;129910;-68
2022/04/24 05:41:08;;;;;;;12.07;10.10;;;9.90;1.00;;;12.21;75.58;98033.38;5002398;28;128517;-72
2022/04/24 05:43:36;;;;;;;9.15;7.10;;;9.90;1.00;;;11.96;77.32;98032.06;5001415;28;119626;-73
2022/04/24 05:46:04;;;;;;;8.27;7.22;;;9.80;1.00;;;11.83;75.47;98034.88;5003468;28;119483;-69
2022/04/24 05:48:32;;;;;;;8.52;6.47;;;9.50;1.00;;;11.68;75.58;98038.44;5000493;28;130766;-72
2022/04/24 05:51:01;;;;;;;9.48;7.15;;;9.40;1.00;;;11.50;77.42;98036.09;5002380;28;129017;-71
2022/04/24 05:53:29;;;;;;;8.60;6.85;;;9.40;1.00;;;11.08;79.91;98033.94;5000993;28;119809;-72
2022/04/24 05:55:59;;;;;;;9.27;7.05;;;9.30;1.00;;;10.77;80.85;98030.06;5001336;28;119949;-71
2022/04/24 05:58:28;;;;;;;14.23;10.55;;;9.10;1.00;;;10.87;79.86;98036.91;5000715;28;129574;-70
2022/04/24 06:00:56;;;;;;;13.38;9.68;;;9.00;1.00;;;10.94;80.82;98039.03;5019591;28;130484;-69
2022/04/24 06:03:25;;;;;;;14.98;11.02;;;9.10;1.00;;;11.15;79.31;98034.09;4999978;28;122128;-69
2022/04/24 06:05:53;;;;;;;17.98;13.38;;;9.10;1.00;;;11.60;77.75;98042.13;4997321;28;122311;-68
2022/04/24 06:08:22;;;;;;;10.55;8.07;;;9.40;1.00;;;11.58;76.76;98042.50;4999676;28;130418;-70
2022/04/24 06:10:50;;;;;;;8.32;6.30;;;9.50;1.00;;;11.76;77.19;98039.38;5001988;28;129177;-69
2022/04/24 06:13:20;;;;;;;7.28;5.75;;;9.80;1.00;;;12.31;75.52;98042.09;5000083;28;119682;-69
2022/04/24 06:15:49;;;;;;;8.68;7.03;;;10.10;1.00;;;12.15;73.68;98045.66;5000391;28;119475;-69
2022/04/24 06:18:17;;;;;;;7.57;5.10;;;10.00;1.00;;;12.20;74.04;98037.25;4999358;28;131225;-69
2022/04/24 06:20:45;;;;;;;7.07;5.38;;;10.00;1.00;;;12.45;73.08;98042.41;5000696;28;129733;-70
2022/04/24 06:23:14;;;;;;;7.72;5.53;;;10.20;1.00;;;12.66;71.79;98043.94;4999893;28;119585;-69
2022/04/24 06:25:42;;;;;;;8.90;6.50;;;10.10;1.00;;;12.13;71.99;98047.97;5002250;28;119423;-68
2022/04/24 06:28:11;;;;;;;13.85;9.88;;;9.80;1.00;;;11.81;72.74;98053.50;5000830;28;130401;-70
2022/04/24 06:30:41;;;;;;;24.52;16.10;;;9.60;1.00;;;11.28;74.64;98053.03;5000199;28;129511;-72
2022/04/24 06:33:11;;;;;;;9.38;6.70;;;9.40;1.00;;;11.01;75.25;98055.47;4999971;28;120056;-69
2022/04/24 06:35:40;;;;;;;6.82;4.95;;;9.20;1.00;;;10.47;78.02;98054.09;4999379;28;119925;-70
2022/04/24 06:38:09;;;;;;;7.70;5.50;;;9.00;1.00;;;10.54;78.04;98056.97;4999854;28;131265;-69
2022/04/24 06:40:37;;;;;;;7.40;5.80;;;9.00;1.00;;;10.54;76.73;98061.63;4983712;28;130659;-70
2022/04/24 06:43:08;;;;;;;8.07;5.20;;;8.80;1.00;;;10.13;78.70;98060.81;4980213;28;119334;-69
2022/04/24 06:45:38;;;;;;;6.68;5.18;;;8.70;1.00;;;10.09;78.85;98063.44;4982580;28;118625;-70
2022/04/24 06:48:11;;;;;;;7.68;5.35;;;8.70;1.00;;;10.24;78.66;98067.38;4975223;28;130055;-69
2022/04/24 06:50:42;;;;;;;6.88;4.85;;;8.60;1.00;;;10.34;79.39;98061.47;4979541;28;129691;-69
2022/04/24 06:53:12;;;;;;;6.05;4.10;;;8.80;1.00;;;10.56;77.57;98067.47;4979513;28;122698;-69
2022/04/24 06:55:43;;;;;;;6.07;4.15;;;8.80;1.00;;;10.54;77.76;98069.75;4981670;28;121724;-68
2022/04/24 06:58:13;;;;;;;6.40;4.65;;;8.80;1.00;;;10.49;78.63;98062.66;4980101;28;130650;-69
2022/04/24 07:00:44;;;;;;;5.35;3.70;;;8.80;1.00;;;10.79;78.18;98076.63;4979488;28;129673;-70
2022/04/24 07:03:18;;;;;;;7.93;4.60;;;9.00;1.00;;;11.08;76.57;98071.97;4998104;28;119316;-69
2022/04/24 07:05:48;;;;;;;5.65;4.07;;;9.20;1.00;;;11.41;75.38;98080.91;4980047;28;119263;-69
2022/04/24 07:08:16;;;;;;;4.95;3.67;;;9.40;1.00;;;11.59;72.99;98075.88;4979376;28;130443;-71
2022/04/24 07:10:45;;;;;;;4.90;3.60;;;9.50;1.00;;;11.63;72.69;98074.81;4979868;28;129968;-68
2022/04/24 07:13:13;;;;;;;6.07;3.85;;;9.30;1.00;;;11.29;74.82;98070.91;4979067;28;120637;-69
2022/04/24 07:15:42;;;;;;;5.05;3.60;;;9.30;1.00;;;11.52;72.30;98073.78;4978582;28;119381;-69
2022/04/24 07:18:10;;;;;;;5.97;3.38;;;9.30;1.00;;;11.83;72.26;98083.03;4976294;28;130017;-69
2022/04/24 07:20:40;;;;;;;4.63;3.17;;;9.50;1.00;;;12.15;71.38;98072.88;4977858;28;130103;-68
2022/04/24 07:23:11;;;;;;;5.53;3.60;;;9.70;1.00;;;12.93;69.13;98078.28;4996543;28;119251;-70
2022/04/24 07:25:43;;;;;;;4.90;3.13;;;10.20;1.00;;;13.63;66.88;98059.19;4978317;28;119480;-69
2022/04/24 07:28:12;;;;;;;5.20;3.10;;;10.70;1.00;;;13.50;65.77;98068.75;4977687;28;129611;-70
2022/04/24 07:30:41;;;;;;;5.40;3.08;;;10.80;1.00;;;13.85;64.70;98060.28;4993911;28;129613;-70
2022/04/24 07:33:11;;;;;;;4.45;2.80;;;11.10;1.00;;;14.46;62.86;98071.19;4979991;28;119628;-69
2022/04/24 07:35:42;;;;;;;4.20;2.55;;;11.50;1.00;;;14.48;61.62;98060.72;4980023;28;120903;-69
2022/04/24 07:38:11;;;;;;;4.82;3.03;;;11.70;1.00;;;14.91;60.04;98070.16;4979215;28;130294;-70
2022/04/24 07:40:40;;;;;;;5.60;3.28;;;11.90;1.00;;;15.22;58.41;98067.31;4979287;28;129513;-70
2022/04/24 07:43:10;;;;;;;4.47;3.20;;;12.20;1.00;;;14.60;60.37;98057.75;4980271;28;122500;-70
2022/04/24 07:45:41;;;;;;;4.40;3.08;;;11.80;1.00;;;14.68;59.06;98067.59;4980339;28;121726;-70
2022/04/24 07:48:11;;;;;;;5.53;3.30;;;11.70;1.00;;;15.10;58.08;98060.19;4979255;28;130897;-69
2022/04/24 07:50:42;;;;;;;6.18;3.83;;;11.80;1.00;;;14.60;58.28;98063.22;4979170;28;129498;-68
2022/04/24 07:53:13;;;;;;;3.63;2.65;;;11.40;1.00;;;14.29;60.50;98056.97;4981334;28;119480;-71
2022/04/24 07:55:43;;;;;;;4.70;2.78;;;11.30;1.00;;;14.48;59.24;98052.53;4979276;28;120258;-69
2022/04/24 07:58:12;;;;;;;4.57;2.38;;;11.30;1.00;;;14.65;57.93;98051.94;4979188;28;130687;-69
2022/04/24 08:00:42;;;;;;;7.07;4.18;;;11.40;1.00;;;14.74;58.32;98060.63;4979283;28;129943;-70
2022/04/24 08:03:13;;;;;;;4.60;2.90;;;11.60;1.00;;;14.79;58.75;98054.06;4979064;28;119615;-70
2022/04/24 08:05:44;;;;;;;5.38;3.25;;;11.80;1.00;;;15.09;58.81;98059.41;4979129;28;119520;-70
2022/04/24 08:08:15;;;;;;;4.40;2.90;;;12.10;1.00;;;14.56;58.21;98074.03;4977511;28;130117;-71
2022/04/24 08:10:48;;;;;;;4.40;2.83;;;11.60;1.00;;;14.21;59.25;98071.69;4978997;28;129628;-69
2022/04/24 08:13:17;;;;;;;5.13;3.28;;;11.40;1.00;;;14.35;59.70;98060.94;4979052;28;120263;-69
2022/04/24 08:15:47;;;;;;;5.00;2.83;;;11.50;1.00;;;13.33;61.54;98067.28;4978938;28;120023;-69
2022/04/24 08:18:16;;;;;;;4.18;2.95;;;11.00;1.00;;;12.79;63.82;98069.84;4978612;28;129869;-71
2022/04/24 08:20:46;;;;;;;4.18;2.70;;;10.80;1.00;;;12.58;65.00;98068.28;4980399;28;129237;-70
2022/04/24 08:23:16;;;;;;;5.22;3.22;;;10.60;1.00;;;12.95;64.41;98078.69;4981921;28;121627;-70
2022/04/24 08:25:46;;;;;;;4.15;2.60;;;10.60;1.00;;;13.32;63.67;98066.47;4979216;28;119132;-69
2022/04/24 08:28:15;;;;;;;3.28;2.35;;;10.80;1.00;;;13.84;61.87;98075.09;4978832;28;130345;-71
2022/04/24 08:30:46;;;;;;;4.13;2.80;;;11.20;1.00;;;14.56;60.14;98071.31;4978630;28;130770;-69
2022/04/24 08:33:17;;;;;;;3.55;2.42;;;11.80;1.00;;;15.25;57.94;98072.03;4977312;28;121966;-70
2022/04/24 08:35:48;;;;;;;3.38;2.30;;;12.30;1.00;;;15.42;54.64;98074.13;4978870;28;121756;-69
2022/04/24 08:38:17;;;;;;;4.05;2.30;;;12.60;1.00;;;15.59;54.76;98074.66;4978317;28;129807;-69
2022/04/24 08:40:47;;;;;;;5.40;2.45;;;12.70;1.00;;;14.62;56.67;98079.22;4978339;28;129978;-68
2022/04/24 08:43:15;;;;;;;4.35;2.50;;;12.20;1.00;;;14.60;56.62;98070.56;4980166;28;119643;-69
2022/04/24 08:45:47;;;;;;;4.40;2.30;;;12.10;1.00;;;15.71;56.15;98082.53;4980419;28;119897;-70
2022/04/24 08:48:16;;;;;;;4.82;3.00;;;12.60;1.00;;;16.44;53.25;98084.53;4978253;28;129681;-69
2022/04/24 08:50:47;;;;;;;5.45;2.90;;;13.10;1.00;;;16.89;52.67;98082.34;4978544;28;130597;-69
2022/04/24 08:53:18;;;;;;;5.07;2.50;;;13.60;1.00;;;16.54;52.49;98083.00;4978473;28;120403;-70
2022/04/24 08:55:47;;;;;;;4.22;2.63;;;13.60;1.00;;;16.83;53.51;98083.88;4978685;28;120082;-70
2022/04/24 08:58:16;;;;;;;3.80;2.30;;;13.60;1.00;;;16.13;53.05;98078.53;4976772;28;129895;-70
2022/04/24 09:00:45;;;;;;;3.40;2.28;;;13.20;1.00;;;15.96;52.13;98081.97;4978081;28;129037;-69
2022/04/24 09:03:14;;;;;;;11.70;6.95;;;12.70;1.00;;;15.15;56.06;98086.41;4978277;28;119621;-69
2022/04/24 09:05:43;;;;;;;6.95;4.60;;;12.50;1.00;;;14.97;56.17;98084.25;4978576;28;120366;-70
2022/04/24 09:08:14;;;;;;;9.43;7.28;;;12.30;1.00;;;14.18;57.00;98083.34;4977798;28;130457;-71
2022/04/24 09:10:54;;;;;;;17.50;15.55;;;11.80;1.00;;;13.47;58.36;98081.16;4977706;28;129889;-71
2022/04/24 09:14:14;;;;;;;4.55;2.70;;;11.40;1.00;;;13.36;59.69;98078.25;4978353;28;119474;-71
2022/04/24 09:16:25;;;;;;;5.28;3.50;;;11.20;1.00;;;14.19;59.24;98084.91;4980892;28;119775;-70
2022/04/24 09:18:54;;;;;;;4.75;3.28;;;11.80;1.00;;;14.51;56.22;98079.84;4977755;28;130986;-69
2022/04/24 09:21:22;;;;;;;5.57;2.83;;;12.10;1.00;;;15.05;56.45;98085.91;4978001;28;129650;-69
2022/04/24 09:23:52;;;;;;;4.35;2.53;;;12.40;1.00;;;15.40;54.94;98084.66;4976403;28;122437;-69
2022/04/24 09:26:21;;;;;;;4.38;2.75;;;12.60;1.00;;;15.33;54.15;98079.13;4996509;28;122084;-71
2022/04/24 09:28:49;;;;;;;5.35;3.03;;;12.60;1.00;;;14.60;55.66;98087.78;4977748;28;129816;-70
2022/04/24 09:31:17;;;;;;;5.13;3.15;;;12.10;1.00;;;14.12;57.39;98095.75;4977833;28;129867;-69
2022/04/24 09:33:46;;;;;;;4.18;2.90;;;11.80;1.00;;;13.69;58.64;98089.66;4977976;28;120663;-69
2022/04/24 09:36:14;;;;;;;4.20;2.63;;;11.40;1.00;;;13.24;60.50;98098.25;4977982;28;119720;-71
2022/04/24 09:38:44;;;;;;;6.07;4.57;;;11.20;1.00;;;13.00;60.65;98098.63;4977195;28;130049;-71
2022/04/24 09:41:20;;;;;;;7.80;4.60;;;10.80;1.00;;;12.61;62.24;98098.69;4979491;28;128320;-70
2022/04/24 09:43:49;;;;;;;4.45;2.80;;;10.60;1.00;;;12.63;63.85;98096.38;4976468;28;119981;-71
2022/04/24 09:46:28;;;;;;;15.88;12.30;;;10.80;1.00;;;12.65;63.50;98115.84;4980687;28;119357;-69
2022/04/24 09:48:59;;;;;;;97.43;56.42;;;10.90;1.00;;;12.48;64.94;98109.69;4978002;28;129967;-70
2022/04/24 09:51:27;;;;;;;103.97;62.35;;;10.90;1.00;;;12.54;64.68;98105.56;4977576;28;130024;-70
2022/04/24 09:54:01;;;;;;;9.85;6.05;;;10.90;1.00;;;12.82;61.47;98104.50;4977693;28;119512;-72
2022/04/24 09:56:31;;;;;;;41.92;25.98;;;10.90;1.00;;;13.31;61.26;98112.00;4989439;28;120608;-69
2022/04/24 09:59:00;;;;;;;79.03;50.58;;;11.20;1.00;;;13.80;60.79;98112.41;4998890;28;129904;-68
2022/04/24 10:01:29;;;;;;;44.67;28.85;;;11.60;1.00;;;13.94;59.45;98109.88;4997071;28;129740;-67
2022/04/24 10:03:58;;;;;;;5.10;3.20;;;11.80;1.00;;;13.87;57.73;98107.06;4997391;28;119538;-70
2022/04/24 10:06:26;;;;;;;94.32;60.03;;;11.60;1.00;;;14.41;58.38;98104.28;4983605;28;118991;-69
2022/04/24 10:08:55;;;;;;;4.95;3.00;;;12.00;1.00;;;14.37;57.66;98105.03;4996300;28;129921;-69
2022/04/24 10:11:23;;;;;;;4.22;2.80;;;12.10;1.00;;;13.48;60.26;98107.25;5000157;28;130001;-69
2022/04/24 10:13:59;;;;;;;4.63;2.58;;;11.70;1.00;;;13.33;60.72;98121.75;5002688;28;122140;-70
2022/04/24 10:17:17;;;;;;;5.00;3.20;;;11.50;1.00;;;13.02;61.68;98118.88;4999513;28;121869;-69
2022/04/24 10:19:59;;;;;;;;;;;11.30;1.00;;;13.09;59.92;98123.69;4994401;28;129708;-70
2022/04/24 10:22:38;;;;;;;4.55;2.83;;;11.20;1.00;;;13.26;59.79;98115.03;4980579;28;129600;-68
2022/04/24 10:25:08;;;;;;;4.47;3.00;;;11.50;1.00;;;13.86;58.37;98121.84;4980491;28;119981;-69
2022/04/24 10:27:43;;;;;;;5.10;3.38;;;11.90;1.00;;;14.61;56.71;98116.63;4982103;28;119785;-69